Time;durP1;ratioP1;P1;durP2;ratioP2;P2;SDS_P1;SDS_P2;PMS_P1;PMS_P2;Temp;Humidity;BMP_temperature;BMP_pressure;BME280_temperature;BME280_humidity;BME280_pressure;Samples;Min_cycle;Max_cycle;Signal;HPM_P1;HPM_P2
2021/01/02 00:02:43;;;;;;;28.60;18.48;;;5.70;91.30;;;;;;5086831;28;20081;-67
2021/01/02 00:05:13;;;;;;;30.63;19.08;;;5.70;90.90;;;;;;5086860;28;20775;-67
2021/01/02 00:07:45;;;;;;;33.47;20.13;;;5.80;90.60;;;;;;5086515;28;20028;-67
2021/01/02 00:10:14;;;;;;;25.52;16.80;;;5.80;90.50;;;;;;5086170;28;20512;-67
2021/01/02 00:13:03;;;;;;;27.67;17.65;;;5.90;90.20;;;;;;5085928;28;20039;-67
2021/01/02 00:15:54;;;;;;;28.00;18.50;;;6.00;90.20;;;;;;5086374;28;20021;-66
2021/01/02 00:18:44;;;;;;;32.58;19.92;;;5.90;90.30;;;;;;5086344;28;20020;-67
2021/01/02 00:21:16;;;;;;;36.67;19.92;;;5.90;90.50;;;;;;5089792;28;20032;-66
2021/01/02 00:24:03;;;;;;;27.63;18.52;;;6.00;90.20;;;;;;5090453;28;20017;-67
2021/01/02 00:26:46;;;;;;;28.73;18.73;;;6.00;90.00;;;;;;5090020;28;20067;-67
2021/01/02 00:29:22;;;;;;;29.30;18.90;;;5.90;90.30;;;;;;5071390;28;20040;-67
2021/01/02 00:32:19;;;;;;;29.65;19.25;;;5.70;90.50;;;;;;5090196;28;20107;-67
2021/01/02 00:34:50;;;;;;;28.85;18.98;;;5.70;90.70;;;;;;5090321;28;20065;-66
2021/01/02 00:37:39;;;;;;;29.85;19.38;;;5.60;90.60;;;;;;5071832;28;20032;-67
2021/01/02 00:40:16;;;;;;;29.98;19.45;;;5.60;90.70;;;;;;5071368;28;20410;-67
2021/01/02 00:42:45;;;;;;;30.52;18.40;;;5.50;90.70;;;;;;5089571;28;20050;-67
2021/01/02 00:45:13;;;;;;;32.13;19.45;;;5.50;90.60;;;;;;5071670;28;20123;-67
2021/01/02 00:47:42;;;;;;;37.50;20.48;;;5.50;90.60;;;;;;5089662;28;20063;-67
2021/01/02 00:50:15;;;;;;;34.45;22.15;;;5.40;91.20;;;;;;5090073;28;20043;-66
2021/01/02 00:52:46;;;;;;;43.58;28.25;;;5.60;91.10;;;;;;5089602;28;20063;-65
2021/01/02 00:55:24;;;;;;;34.85;22.35;;;5.40;91.30;;;;;;5089302;28;20032;-67
2021/01/02 00:57:51;;;;;;;34.50;22.27;;;5.30;92.00;;;;;;5089683;28;20031;-67
2021/01/02 01:00:18;;;;;;;38.00;23.55;;;5.40;91.90;;;;;;5089459;28;20020;-65
2021/01/02 01:03:02;;;;;;;40.60;22.85;;;5.30;92.20;;;;;;5089942;28;20028;-67
2021/01/02 01:05:36;;;;;;;35.88;23.38;;;5.30;92.20;;;;;;5071402;28;20036;-67
2021/01/02 01:08:03;;;;;;;37.67;25.13;;;5.20;92.50;;;;;;5089784;28;20627;-67
2021/01/02 01:10:31;;;;;;;41.15;25.05;;;5.20;92.80;;;;;;5088666;28;20471;-66
2021/01/02 01:13:05;;;;;;;35.45;24.10;;;5.20;92.90;;;;;;5089431;28;20028;-66
2021/01/02 01:15:31;;;;;;;37.35;26.10;;;5.40;92.80;;;;;;5089436;28;20078;-67
2021/01/02 01:18:05;;;;;;;38.03;25.52;;;5.20;92.70;;;;;;5089144;28;20119;-67
2021/01/02 01:20:31;;;;;;;46.40;30.05;;;5.20;92.90;;;;;;5088870;28;20161;-66
2021/01/02 01:23:23;;;;;;;44.90;28.30;;;5.30;93.30;;;;;;5089156;28;20085;-66
2021/01/02 01:26:00;;;;;;;47.55;29.65;;;5.20;93.60;;;;;;5076759;28;20105;-66
2021/01/02 01:28:27;;;;;;;45.13;28.55;;;5.20;93.60;;;;;;5089200;28;20040;-66
2021/01/02 01:30:54;;;;;;;43.53;28.42;;;5.30;93.70;;;;;;5088472;28;20388;-67
2021/01/02 01:33:28;;;;;;;43.97;28.10;;;5.40;93.60;;;;;;5070940;28;20035;-66
2021/01/02 01:35:58;;;;;;;45.08;30.40;;;5.40;93.50;;;;;;5089276;28;20370;-66
2021/01/02 01:38:27;;;;;;;41.05;26.58;;;5.40;93.50;;;;;;5088893;28;20035;-67
2021/01/02 01:41:16;;;;;;;43.47;26.58;;;5.40;93.40;;;;;;5070662;28;20031;-67
2021/01/02 01:43:48;;;;;;;38.83;25.17;;;5.50;93.10;;;;;;5087956;28;20036;-66
2021/01/02 01:46:15;;;;;;;35.70;23.33;;;5.50;93.00;;;;;;5089145;28;20035;-67
2021/01/02 01:49:04;;;;;;;37.60;23.40;;;5.50;93.00;;;;;;5088640;28;20031;-67
2021/01/02 01:51:50;;;;;;;33.78;23.05;;;5.60;92.30;;;;;;5055429;28;20040;-67
2021/01/02 01:54:39;;;;;;;36.00;23.75;;;5.60;92.30;;;;;;5088435;28;20400;-66
2021/01/02 01:57:05;;;;;;;40.08;24.77;;;5.70;92.30;;;;;;5088604;28;20054;-67
2021/01/02 01:59:57;;;;;;;37.53;25.15;;;5.70;92.30;;;;;;5088805;28;20024;-67
2021/01/02 02:02:46;;;;;;;34.78;24.45;;;5.70;92.50;;;;;;5088088;28;20042;-67
2021/01/02 02:05:17;;;;;;;41.10;24.80;;;5.70;92.50;;;;;;5074638;28;20032;-67
2021/01/02 02:08:04;;;;;;;39.38;24.52;;;5.70;92.60;;;;;;5088086;28;20032;-67
2021/01/02 02:10:38;;;;;;;40.38;25.08;;;5.80;92.10;;;;;;5087744;28;20051;-67
2021/01/02 02:13:10;;;;;;;43.38;23.38;;;5.80;92.10;;;;;;5088591;28;20032;-66
2021/01/02 02:15:50;;;;;;;36.58;23.30;;;5.80;92.00;;;;;;5088095;28;20027;-67
2021/01/02 02:18:29;;;;;;;34.00;23.00;;;5.70;91.90;;;;;;5088318;28;20024;-66
2021/01/02 02:21:02;;;;;;;32.00;21.40;;;5.60;91.90;;;;;;5087924;28;20042;-66
2021/01/02 02:23:27;;;;;;;32.90;21.60;;;5.70;91.80;;;;;;5087745;28;20028;-67
2021/01/02 02:26:04;;;;;;;;;;;5.50;91.90;;;;;;5088437;28;20059;-66
2021/01/02 02:28:33;;;;;;;34.15;20.88;;;5.60;92.00;;;;;;5069773;28;20423;-67
2021/01/02 02:31:04;;;;;;;35.10;22.48;;;5.70;91.60;;;;;;5088193;28;20040;-66
2021/01/02 02:33:31;;;;;;;32.67;21.20;;;5.70;91.70;;;;;;5087947;28;20030;-67
2021/01/02 02:35:58;;;;;;;32.63;20.67;;;5.60;91.90;;;;;;5087602;28;20035;-66
2021/01/02 02:38:24;;;;;;;35.63;19.23;;;5.60;91.90;;;;;;5087514;28;20081;-67
2021/01/02 02:40:50;;;;;;;;;;;5.60;91.60;;;;;;5088285;28;20032;-67
2021/01/02 02:43:18;;;;;;;28.33;17.90;;;5.50;91.50;;;;;;5087002;28;20495;-67
2021/01/02 02:45:45;;;;;;;30.13;16.52;;;5.70;90.90;;;;;;5087696;28;20028;-69
2021/01/02 02:48:16;;;;;;;28.70;17.08;;;5.70;90.40;;;;;;5087790;28;20067;-67
2021/01/02 02:50:47;;;;;;;25.98;16.65;;;5.70;90.10;;;;;;5069841;28;20486;-68
2021/01/02 02:53:16;;;;;;;31.33;18.13;;;5.70;90.30;;;;;;5087408;28;20032;-67
2021/01/02 02:55:42;;;;;;;27.33;17.27;;;5.80;90.40;;;;;;5087420;28;20028;-67
2021/01/02 02:58:09;;;;;;;39.15;19.25;;;5.80;90.40;;;;;;5087066;28;20047;-67
2021/01/02 03:00:35;;;;;;;30.67;19.35;;;5.80;90.70;;;;;;5087146;28;20027;-67
2021/01/02 03:03:02;;;;;;;37.25;19.70;;;5.80;90.80;;;;;;5087436;28;20536;-67
2021/01/02 03:05:29;;;;;;;29.80;18.77;;;5.80;90.80;;;;;;5086915;28;20028;-67
2021/01/02 03:07:55;;;;;;;32.40;19.65;;;5.80;90.60;;;;;;5087129;28;20063;-67
2021/01/02 03:10:22;;;;;;;28.27;19.02;;;5.60;91.10;;;;;;5087159;28;20043;-67
2021/01/02 03:12:50;;;;;;;36.78;19.10;;;5.60;91.30;;;;;;5086804;28;20036;-67
2021/01/02 03:15:18;;;;;;;32.78;20.33;;;5.50;91.50;;;;;;5087115;28;20036;-67
2021/01/02 03:17:48;;;;;;;33.08;19.60;;;5.50;91.30;;;;;;5086749;28;20056;-67
2021/01/02 03:20:16;;;;;;;31.08;19.85;;;5.50;91.40;;;;;;5087299;28;20024;-68
2021/01/02 03:22:43;;;;;;;33.20;21.00;;;5.50;91.40;;;;;;5086388;28;20059;-67
2021/01/02 03:25:10;;;;;;;33.22;18.88;;;5.40;91.40;;;;;;5068504;28;20579;-67
2021/01/02 03:27:36;;;;;;;31.67;19.58;;;5.50;91.20;;;;;;5086842;28;20512;-65
2021/01/02 03:30:10;;;;;;;31.83;20.52;;;5.50;91.40;;;;;;5068433;28;20503;-68
2021/01/02 03:32:38;;;;;;;30.55;19.88;;;5.40;91.40;;;;;;5086937;28;20056;-67
2021/01/02 03:35:06;;;;;;;32.25;18.67;;;5.30;91.50;;;;;;5086404;28;20101;-66
2021/01/02 03:37:34;;;;;;;27.60;17.45;;;5.30;91.40;;;;;;5086642;28;20032;-67
2021/01/02 03:39:59;;;;;;;31.48;18.42;;;5.20;91.30;;;;;;5086403;28;20027;-66
2021/01/02 03:42:25;;;;;;;;;;;5.10;91.40;;;;;;5087208;28;20230;-67
2021/01/02 03:44:50;;;;;;;27.60;16.30;;;5.00;91.40;;;;;;5086632;28;19915;-67
2021/01/02 03:47:16;;;;;;;;;;;4.90;91.40;;;;;;5086575;28;20028;-67
2021/01/02 03:49:41;;;;;;;31.80;18.55;;;4.90;91.70;;;;;;5086623;28;19916;-66
2021/01/02 03:52:07;;;;;;;;;;;4.90;91.60;;;;;;5086858;28;20036;-66
2021/01/02 03:54:34;;;;;;;28.30;17.58;;;4.80;91.60;;;;;;5085780;28;20356;-67
2021/01/02 03:57:00;;;;;;;31.40;17.75;;;4.80;91.70;;;;;;5086031;28;20032;-67
2021/01/02 03:59:26;;;;;;;;;;;4.70;91.80;;;;;;5086822;28;20054;-67
2021/01/02 04:01:56;;;;;;;23.80;14.57;;;4.60;92.10;;;;;;5086178;28;20423;-67
2021/01/02 04:04:22;;;;;;;32.10;16.67;;;4.70;91.80;;;;;;5086426;28;20036;-67
2021/01/02 04:06:47;;;;;;;;;;;4.80;91.50;;;;;;5086601;28;20028;-67
2021/01/02 04:09:13;;;;;;;24.45;15.52;;;4.60;91.60;;;;;;5085915;28;19923;-66
2021/01/02 04:11:40;;;;;;;;;;;4.60;91.70;;;;;;5086802;28;20023;-67
2021/01/02 04:14:05;;;;;;;21.23;13.35;;;4.60;91.30;;;;;;5086509;28;20010;-66
2021/01/02 04:16:31;;;;;;;;;;;4.60;91.00;;;;;;5086497;28;20560;-67
2021/01/02 04:18:57;;;;;;;24.67;14.18;;;4.60;91.00;;;;;;5086381;28;19914;-66
2021/01/02 04:21:22;;;;;;;;;;;4.50;91.20;;;;;;5086439;28;20016;-67
2021/01/02 04:23:48;;;;;;;21.65;12.25;;;4.50;91.20;;;;;;5085559;28;19954;-67
2021/01/02 04:26:23;;;;;;;;;;;4.50;90.00;;;;;;5086686;28;20052;-67
2021/01/02 04:28:50;;;;;;;20.65;13.05;;;4.60;90.40;;;;;;5068050;28;19933;-66
2021/01/02 04:31:17;;;;;;;23.17;13.45;;;4.60;90.30;;;;;;5085632;28;20043;-67
2021/01/02 04:33:42;;;;;;;24.15;13.10;;;4.40;90.40;;;;;;5086036;28;20461;-67
2021/01/02 04:36:11;;;;;;;;;;;4.30;90.30;;;;;;5086307;28;20043;-67
2021/01/02 04:38:37;;;;;;;23.85;9.90;;;4.40;89.90;;;;;;5085607;28;19908;-68
2021/01/02 04:41:02;;;;;;;;;;;4.50;88.80;;;;;;5086573;28;20024;-68
2021/01/02 04:43:28;;;;;;;19.65;11.93;;;4.60;87.90;;;;;;5085915;28;19998;-67
2021/01/02 04:45:54;;;;;;;;;;;4.40;88.50;;;;;;5086251;28;20533;-66
2021/01/02 04:48:20;;;;;;;14.43;6.93;;;4.40;87.40;;;;;;5085916;28;19999;-67
2021/01/02 04:50:46;;;;;;;;;;;4.60;84.30;;;;;;5068362;28;20044;-67
2021/01/02 04:53:12;;;;;;;16.85;10.40;;;4.70;86.00;;;;;;5084935;28;19950;-67
2021/01/02 04:55:43;;;;;;;15.65;10.25;;;4.60;86.80;;;;;;5085970;28;20075;-67
2021/01/02 04:58:18;;;;;;;18.00;10.23;;;4.50;87.30;;;;;;5085585;28;20048;-67
2021/01/02 05:00:46;;;;;;;22.25;9.88;;;4.50;86.80;;;;;;5085700;28;20035;-67
2021/01/02 05:03:11;;;;;;;14.82;9.57;;;4.40;86.00;;;;;;5085724;28;20032;-68
2021/01/02 05:05:37;;;;;;;;;;;4.30;86.60;;;;;;5087314;28;20103;-67
2021/01/02 05:08:03;;;;;;;17.50;9.02;;;4.20;86.90;;;;;;5089402;28;19916;-67
2021/01/02 05:10:29;;;;;;;15.70;9.30;;;4.10;87.20;;;;;;5089195;28;20054;-67
2021/01/02 05:13:24;;;;;;;;;;;4.10;87.30;;;;;;5072036;28;20476;-66
2021/01/02 05:15:50;;;;;;;20.05;9.82;;;4.30;86.60;;;;;;5067042;28;19908;-67
2021/01/02 05:18:15;;;;;;;;;;;4.50;85.60;;;;;;5089854;28;20039;-66
2021/01/02 05:20:41;;;;;;;15.90;8.35;;;4.30;85.40;;;;;;5089071;28;19908;-67
2021/01/02 05:23:08;;;;;;;;;;;4.30;85.90;;;;;;5089245;28;20036;-67
2021/01/02 05:25:34;;;;;;;14.05;8.13;;;4.30;86.10;;;;;;5088831;28;19926;-67
2021/01/02 05:27:59;;;;;;;16.70;7.47;;;4.40;85.70;;;;;;5089363;28;20028;-68
2021/01/02 05:30:26;;;;;;;;;;;4.60;85.50;;;;;;5089465;28;20031;-67
2021/01/02 05:33:05;;;;;;;16.08;9.07;;;4.60;85.30;;;;;;5089434;28;19911;-67
2021/01/02 05:35:36;;;;;;;18.27;9.63;;;4.50;85.80;;;;;;5070672;28;20071;-67
2021/01/02 05:38:20;;;;;;;16.20;9.10;;;4.40;86.70;;;;;;5088253;28;20477;-66
2021/01/02 05:40:56;;;;;;;17.45;10.05;;;4.20;87.10;;;;;;5088721;28;20016;-66
2021/01/02 05:43:24;;;;;;;15.35;9.30;;;4.10;87.80;;;;;;5087582;28;20099;-66
2021/01/02 05:45:51;;;;;;;19.88;9.57;;;4.00;88.60;;;;;;5088307;28;20035;-66
2021/01/02 05:48:25;;;;;;;16.25;9.52;;;3.90;88.60;;;;;;5087921;28;20046;-66
2021/01/02 05:50:58;;;;;;;13.30;7.93;;;3.80;88.30;;;;;;5087624;28;20059;-67
2021/01/02 05:53:29;;;;;;;15.02;8.25;;;3.90;87.40;;;;;;5086290;28;20055;-66
2021/01/02 05:56:13;;;;;;;11.00;6.65;;;3.90;86.80;;;;;;5084818;28;20035;-67
2021/01/02 05:58:45;;;;;;;9.57;5.65;;;3.90;85.90;;;;;;5069753;28;20036;-65
2021/01/02 06:01:12;;;;;;;9.77;5.28;;;3.90;84.20;;;;;;5087234;28;20527;-68
2021/01/02 06:03:40;;;;;;;8.10;4.55;;;4.10;82.50;;;;;;5087538;28;20028;-66
2021/01/02 06:06:13;;;;;;;7.95;4.50;;;4.40;80.70;;;;;;5087774;28;20127;-66
2021/01/02 06:08:42;;;;;;;13.38;5.60;;;4.50;79.30;;;;;;5083490;28;20043;-65
2021/01/02 06:11:13;;;;;;;7.80;4.72;;;4.50;79.70;;;;;;5087631;28;20036;-66
2021/01/02 06:13:41;;;;;;;8.57;4.57;;;4.40;79.90;;;;;;5087369;28;20043;-66
2021/01/02 06:16:08;;;;;;;14.32;9.18;;;4.30;80.40;;;;;;5086972;28;20502;-66
2021/01/02 06:18:36;;;;;;;12.93;6.40;;;4.20;81.00;;;;;;5086196;28;20040;-66
2021/01/02 06:21:11;;;;;;;9.57;4.82;;;4.20;81.30;;;;;;5086143;28;20557;-66
2021/01/02 06:23:39;;;;;;;10.35;5.40;;;4.30;80.80;;;;;;5086651;28;20036;-66
2021/01/02 06:26:07;;;;;;;11.18;6.43;;;4.30;80.60;;;;;;5087428;28;20052;-65
2021/01/02 06:28:34;;;;;;;7.80;4.68;;;4.40;80.80;;;;;;5086806;28;20082;-66
2021/01/02 06:31:11;;;;;;;11.45;6.00;;;4.30;81.30;;;;;;5087750;28;20036;-72
2021/01/02 06:33:44;;;;;;;11.18;5.95;;;4.20;81.70;;;;;;5088103;28;20059;-65
2021/01/02 06:36:31;;;;;;;10.68;5.72;;;4.30;81.40;;;;;;5087791;28;20062;-68
2021/01/02 06:39:20;;;;;;;9.27;5.10;;;4.20;82.00;;;;;;5087383;28;20012;-66
2021/01/02 06:41:46;;;;;;;9.35;4.85;;;4.20;82.00;;;;;;5087401;28;20077;-68
2021/01/02 06:44:31;;;;;;;;;;;4.20;81.50;;;;;;5088342;28;20028;-68
2021/01/02 06:47:19;;;;;;;9.82;5.00;;;4.30;80.40;;;;;;5087543;28;19934;-67
2021/01/02 06:49:46;;;;;;;7.15;3.50;;;4.40;78.80;;;;;;5087395;28;20126;-67
2021/01/02 06:52:29;;;;;;;9.05;3.80;;;4.60;77.50;;;;;;5087005;28;20577;-68
2021/01/02 06:55:14;;;;;;;7.18;3.72;;;4.70;76.50;;;;;;5087421;28;20020;-68
2021/01/02 06:57:40;;;;;;;7.25;3.90;;;4.80;75.80;;;;;;5087046;28;20625;-67
2021/01/02 07:00:18;;;;;;;;;;;4.80;75.40;;;;;;5087794;28;20035;-67
2021/01/02 07:02:44;;;;;;;6.50;2.85;;;4.90;75.00;;;;;;5087268;28;19930;-67
2021/01/02 07:05:09;;;;;;;;;;;4.90;74.30;;;;;;5087051;28;20111;-67
2021/01/02 07:07:39;;;;;;;7.72;2.67;;;5.00;73.40;;;;;;5087349;28;19904;-66
2021/01/02 07:10:18;;;;;;;5.60;2.80;;;5.10;72.30;;;;;;5086847;28;20032;-67
2021/01/02 07:12:44;;;;;;;7.40;3.03;;;5.20;72.40;;;;;;5086529;28;20032;-66
2021/01/02 07:15:10;;;;;;;;;;;5.10;72.20;;;;;;5068514;28;20026;-66
2021/01/02 07:17:35;;;;;;;7.90;3.72;;;5.30;71.50;;;;;;5086358;28;20371;-67
2021/01/02 07:20:05;;;;;;;;;;;5.50;70.50;;;;;;5086809;28;20492;-66
2021/01/02 07:22:30;;;;;;;7.93;2.90;;;5.50;70.10;;;;;;5068695;28;19961;-67
2021/01/02 07:25:03;;;;;;;;;;;5.60;70.30;;;;;;5087085;28;20051;-67
2021/01/02 07:27:47;;;;;;;6.45;3.40;;;5.50;70.80;;;;;;5087050;28;19920;-67
2021/01/02 07:30:13;;;;;;;5.07;2.53;;;5.60;70.60;;;;;;5086271;28;20519;-66
2021/01/02 07:32:41;;;;;;;5.38;2.55;;;5.60;69.90;;;;;;5086446;28;20043;-67
2021/01/02 07:35:09;;;;;;;4.85;2.50;;;5.60;70.60;;;;;;5086493;28;20085;-67
2021/01/02 07:37:37;;;;;;;5.63;2.35;;;5.70;70.40;;;;;;5086321;28;20439;-67
2021/01/02 07:40:07;;;;;;;7.30;2.20;;;5.70;70.90;;;;;;5086773;28;20044;-67
2021/01/02 07:42:37;;;;;;;4.13;2.40;;;5.80;70.40;;;;;;5086358;28;20089;-68
2021/01/02 07:45:14;;;;;;;5.35;2.35;;;5.80;70.40;;;;;;5068609;28;20039;-67
2021/01/02 07:47:45;;;;;;;5.55;2.28;;;5.90;69.80;;;;;;5086484;28;20024;-67
2021/01/02 07:50:13;;;;;;;4.43;2.30;;;6.00;69.50;;;;;;5086416;28;20123;-67
2021/01/02 07:52:54;;;;;;;12.05;5.78;;;6.20;68.90;;;;;;5086593;28;20035;-67
2021/01/02 07:55:25;;;;;;;4.95;2.92;;;6.30;68.60;;;;;;5086344;28;20055;-68
2021/01/02 07:57:51;;;;;;;13.52;6.03;;;6.40;68.50;;;;;;5068237;28;20050;-66
2021/01/02 08:00:17;;;;;;;;;;;6.50;68.10;;;;;;5068532;28;20484;-67
2021/01/02 08:02:42;;;;;;;8.75;4.00;;;6.40;68.80;;;;;;5086496;28;19904;-67
2021/01/02 08:05:15;;;;;;;;;;;6.60;67.20;;;;;;5086313;28;20032;-67
2021/01/02 08:07:42;;;;;;;12.40;7.53;;;6.60;67.40;;;;;;5086129;28;20489;-67
2021/01/02 08:10:12;;;;;;;4.88;2.50;;;6.70;67.30;;;;;;5068167;28;20322;-67
2021/01/02 08:12:48;;;;;;;7.25;3.65;;;6.70;66.90;;;;;;5086092;28;20047;-67
2021/01/02 08:15:17;;;;;;;7.07;2.90;;;6.80;66.20;;;;;;5085861;28;20035;-67
2021/01/02 08:17:43;;;;;;;4.93;2.25;;;7.10;65.20;;;;;;5085961;28;20024;-67
2021/01/02 08:20:09;;;;;;;;;;;7.20;65.30;;;;;;5086572;28;20389;-66
2021/01/02 08:22:37;;;;;;;6.90;3.15;;;7.10;65.30;;;;;;5086162;28;19915;-67
2021/01/02 08:25:18;;;;;;;9.93;5.72;;;7.50;63.30;;;;;;5086181;28;20039;-66
2021/01/02 08:27:45;;;;;;;13.50;6.55;;;7.50;63.40;;;;;;5086245;28;20118;-67
2021/01/02 08:30:13;;;;;;;29.23;19.50;;;7.50;65.10;;;;;;5086257;28;20032;-67
2021/01/02 08:32:45;;;;;;;13.35;7.30;;;7.50;64.50;;;;;;5085925;28;20025;-67
2021/01/02 08:35:18;;;;;;;50.17;22.10;;;7.70;63.30;;;;;;5085175;28;20093;-68
2021/01/02 08:37:46;;;;;;;11.02;2.72;;;7.90;63.10;;;;;;5086218;28;20042;-68
2021/01/02 08:40:13;;;;;;;7.97;3.80;;;8.20;61.60;;;;;;5086062;28;20047;-67
2021/01/02 08:42:41;;;;;;;4.32;2.13;;;8.30;61.20;;;;;;5090022;28;20156;-68
2021/01/02 08:45:08;;;;;;;13.80;8.38;;;8.10;60.30;;;;;;5089862;28;20043;-67
2021/01/02 08:47:38;;;;;;;17.25;8.10;;;8.00;61.40;;;;;;5090121;28;20027;-67
2021/01/02 08:50:12;;;;;;;20.58;11.32;;;7.70;62.40;;;;;;5089310;28;20040;-67
2021/01/02 08:52:38;;;;;;;16.27;9.68;;;7.50;63.50;;;;;;5089976;28;20031;-68
2021/01/02 08:55:12;;;;;;;6.18;3.03;;;7.60;64.00;;;;;;5090116;28;20032;-66
2021/01/02 08:57:46;;;;;;;5.03;2.30;;;7.90;61.80;;;;;;5089721;28;20027;-67
2021/01/02 09:00:18;;;;;;;7.68;2.90;;;7.80;63.40;;;;;;5089563;28;20130;-65
2021/01/02 09:02:46;;;;;;;5.35;2.83;;;7.80;62.60;;;;;;5088090;28;20032;-66
2021/01/02 09:05:36;;;;;;;5.15;2.38;;;7.70;61.80;;;;;;5071032;28;20035;-67
2021/01/02 09:08:11;;;;;;;7.22;2.95;;;7.80;61.70;;;;;;5089887;28;20028;-67
2021/01/02 09:10:40;;;;;;;4.07;2.50;;;7.70;61.40;;;;;;5071260;28;20127;-68
2021/01/02 09:13:24;;;;;;;8.93;2.70;;;7.70;61.60;;;;;;5089013;28;20028;-66
2021/01/02 09:15:56;;;;;;;5.05;2.72;;;7.60;62.30;;;;;;5088980;28;20477;-68
2021/01/02 09:18:27;;;;;;;8.30;3.72;;;7.60;61.90;;;;;;5089506;28;20027;-68
2021/01/02 09:20:53;;;;;;;4.68;2.78;;;7.60;63.20;;;;;;5089033;28;20484;-67
2021/01/02 09:23:29;;;;;;;11.10;4.15;;;7.60;63.80;;;;;;5070538;28;20020;-68
2021/01/02 09:25:55;;;;;;;7.18;3.40;;;7.60;64.40;;;;;;5088570;28;20048;-67
2021/01/02 09:28:21;;;;;;;;;;;7.60;64.20;;;;;;5089617;28;20034;-67
2021/01/02 09:30:49;;;;;;;6.60;3.25;;;7.60;64.00;;;;;;5071138;28;20271;-67
2021/01/02 09:33:15;;;;;;;7.25;2.33;;;7.70;64.30;;;;;;5089105;28;20020;-67
2021/01/02 09:35:42;;;;;;;8.23;3.20;;;7.90;62.90;;;;;;5088461;28;20020;-67
2021/01/02 09:38:09;;;;;;;7.70;2.97;;;7.80;63.20;;;;;;5071125;28;20533;-67
2021/01/02 09:40:37;;;;;;;8.52;3.05;;;7.90;63.30;;;;;;5070779;28;20093;-66
2021/01/02 09:43:05;;;;;;;4.47;2.50;;;8.00;63.80;;;;;;5088600;28;20032;-67
2021/01/02 09:45:31;;;;;;;9.70;3.53;;;8.10;63.30;;;;;;5089066;28;20024;-66
2021/01/02 09:47:56;;;;;;;;;;;8.30;62.70;;;;;;5089393;28;20027;-66
2021/01/02 09:50:22;;;;;;;5.70;2.92;;;8.10;62.00;;;;;;5088228;28;19930;-67
2021/01/02 09:52:47;;;;;;;;;;;8.30;61.50;;;;;;5088642;28;20051;-67
2021/01/02 09:55:13;;;;;;;8.05;2.75;;;8.10;61.60;;;;;;5070655;28;19908;-66
2021/01/02 09:57:39;;;;;;;6.20;2.30;;;8.00;62.60;;;;;;5088411;28;20142;-67
2021/01/02 10:00:07;;;;;;;12.15;5.68;;;8.00;62.70;;;;;;5088424;28;20103;-67
2021/01/02 10:02:33;;;;;;;7.63;2.97;;;8.10;64.10;;;;;;5088658;28;20032;-67
2021/01/02 10:04:58;;;;;;;;;;;8.30;62.70;;;;;;5088075;28;20438;-67
2021/01/02 10:07:24;;;;;;;7.38;3.88;;;8.50;61.90;;;;;;5088637;28;19911;-67
2021/01/02 10:09:50;;;;;;;;;;;8.30;62.30;;;;;;5088679;28;20824;-67
2021/01/02 10:12:17;;;;;;;7.38;3.75;;;8.10;63.60;;;;;;5088177;28;20527;-66
2021/01/02 10:14:43;;;;;;;8.40;3.08;;;8.10;64.20;;;;;;5088362;28;20028;-67
2021/01/02 10:17:10;;;;;;;;;;;8.20;63.80;;;;;;5088574;28;20381;-67
2021/01/02 10:19:39;;;;;;;9.13;4.82;;;8.10;63.30;;;;;;5088270;28;20432;-65
2021/01/02 10:22:05;;;;;;;13.23;8.45;;;8.00;63.80;;;;;;5088051;28;20123;-66
2021/01/02 10:24:31;;;;;;;;;;;8.00;64.70;;;;;;5088733;28;20453;-66
2021/01/02 10:26:57;;;;;;;7.57;3.55;;;8.00;65.20;;;;;;5088061;28;20371;-67
2021/01/02 10:29:22;;;;;;;6.95;3.47;;;8.10;64.50;;;;;;5087595;28;20567;-66
2021/01/02 10:31:48;;;;;;;;;;;8.00;65.50;;;;;;5088553;28;20111;-66
2021/01/02 10:34:15;;;;;;;12.27;8.48;;;7.80;65.80;;;;;;5087839;28;19916;-67
2021/01/02 10:36:44;;;;;;;6.93;3.72;;;7.80;66.90;;;;;;5087686;28;20038;-67
2021/01/02 10:39:10;;;;;;;6.93;3.15;;;7.90;66.40;;;;;;5087774;28;20032;-66
2021/01/02 10:41:35;;;;;;;;;;;7.90;66.90;;;;;;5088247;28;20077;-67
2021/01/02 10:44:01;;;;;;;8.00;3.83;;;7.70;66.80;;;;;;5087492;28;20368;-66
2021/01/02 10:46:26;;;;;;;;;;;7.80;66.90;;;;;;5070055;28;20031;-66
2021/01/02 10:48:52;;;;;;;8.55;3.28;;;7.90;66.10;;;;;;5087082;28;20299;-65
2021/01/02 10:51:19;;;;;;;;;;;7.90;67.00;;;;;;5087645;28;20032;-66
2021/01/02 10:53:45;;;;;;;7.93;3.55;;;7.90;67.40;;;;;;5086934;28;19908;-67
2021/01/02 10:56:15;;;;;;;;;;;7.70;67.90;;;;;;5087900;28;20105;-65
2021/01/02 10:58:41;;;;;;;8.68;4.32;;;7.80;68.10;;;;;;5087632;28;19912;-67
2021/01/02 11:01:06;;;;;;;;;;;7.70;68.50;;;;;;5087371;28;20103;-67
2021/01/02 11:03:35;;;;;;;10.88;4.00;;;7.70;67.90;;;;;;5086439;28;20396;-66
2021/01/02 11:06:08;;;;;;;7.30;3.92;;;7.80;67.50;;;;;;5068702;28;20089;-66
2021/01/02 11:08:35;;;;;;;10.23;4.55;;;7.80;67.60;;;;;;5087038;28;20038;-66
2021/01/02 11:11:01;;;;;;;8.48;3.40;;;7.80;67.20;;;;;;5087478;28;20042;-67
2021/01/02 11:13:26;;;;;;;;;;;7.70;67.60;;;;;;5087746;28;20024;-65
2021/01/02 11:15:52;;;;;;;9.98;3.65;;;7.70;67.90;;;;;;5086766;28;19907;-67
2021/01/02 11:18:18;;;;;;;;;;;7.50;67.10;;;;;;5087369;28;20544;-66
2021/01/02 11:20:45;;;;;;;21.13;8.85;;;7.40;68.80;;;;;;5068467;28;19911;-66
2021/01/02 11:23:12;;;;;;;24.88;9.45;;;7.40;69.30;;;;;;5087083;28;20034;-66
2021/01/02 11:25:38;;;;;;;6.07;3.35;;;7.30;69.90;;;;;;5086484;28;20617;-67
2021/01/02 11:28:03;;;;;;;;;;;7.60;68.60;;;;;;5069069;28;20028;-66
2021/01/02 11:30:29;;;;;;;69.72;30.67;;;7.70;67.40;;;;;;5086808;28;19919;-66
2021/01/02 11:32:54;;;;;;;;;;;7.50;68.80;;;;;;5068353;28;20031;-66
2021/01/02 11:35:20;;;;;;;9.02;3.63;;;7.40;68.40;;;;;;5086826;28;19998;-66
2021/01/02 11:37:46;;;;;;;;;;;7.50;68.70;;;;;;5087064;28;20035;-66
2021/01/02 11:40:12;;;;;;;10.30;4.47;;;7.50;69.10;;;;;;5086644;28;20307;-66
2021/01/02 11:42:38;;;;;;;;;;;7.50;69.00;;;;;;5086928;28;20032;-66
2021/01/02 11:45:04;;;;;;;13.35;6.85;;;7.70;67.90;;;;;;5086829;28;19907;-65
2021/01/02 11:47:30;;;;;;;7.10;3.97;;;7.80;68.40;;;;;;5086071;28;20625;-66
2021/01/02 11:49:55;;;;;;;;;;;7.80;67.90;;;;;;5085473;28;20043;-66
2021/01/02 11:52:21;;;;;;;7.53;3.20;;;7.80;67.00;;;;;;5085526;28;19904;-66
2021/01/02 11:54:47;;;;;;;8.98;4.45;;;7.90;66.70;;;;;;5086465;28;20027;-66
2021/01/02 11:57:12;;;;;;;;;;;7.90;67.60;;;;;;5086805;28;20051;-66
2021/01/02 11:59:43;;;;;;;6.30;3.30;;;8.00;67.50;;;;;;5086697;28;19943;-66
2021/01/02 12:02:08;;;;;;;7.03;2.95;;;8.00;66.90;;;;;;5086436;28;20251;-66
2021/01/02 12:04:34;;;;;;;;;;;8.00;66.60;;;;;;5086275;28;20492;-67
2021/01/02 12:07:01;;;;;;;7.68;2.85;;;8.10;66.40;;;;;;5086549;28;19940;-66
2021/01/02 12:09:28;;;;;;;9.30;5.45;;;8.00;67.50;;;;;;5085885;28;20062;-66
2021/01/02 12:11:55;;;;;;;7.95;4.95;;;8.10;68.10;;;;;;5086304;28;20025;-66
2021/01/02 12:14:33;;;;;;;10.55;5.68;;;7.90;68.10;;;;;;5086411;28;20032;-66
2021/01/02 12:17:00;;;;;;;34.17;17.25;;;7.80;68.70;;;;;;5085831;28;20028;-69
2021/01/02 12:19:30;;;;;;;52.92;23.10;;;7.80;69.00;;;;;;5068204;28;20546;-67
2021/01/02 12:21:59;;;;;;;9.93;3.67;;;8.00;67.60;;;;;;5085888;28;20024;-66
2021/01/02 12:24:25;;;;;;;67.45;26.27;;;8.10;66.30;;;;;;5086445;28;20028;-67
2021/01/02 12:26:54;;;;;;;26.15;10.82;;;7.90;66.80;;;;;;5086112;28;20056;-68
2021/01/02 12:29:22;;;;;;;30.08;13.05;;;7.90;67.80;;;;;;5068148;28;20040;-67
2021/01/02 12:31:51;;;;;;;46.35;17.98;;;7.90;67.50;;;;;;5067223;28;20032;-67
2021/01/02 12:34:19;;;;;;;31.23;10.50;;;7.80;68.00;;;;;;5085765;28;20028;-67
2021/01/02 12:36:45;;;;;;;16.52;6.25;;;8.00;67.40;;;;;;5085842;28;20060;-67
2021/01/02 12:39:14;;;;;;;17.02;6.10;;;7.80;68.50;;;;;;5085837;28;20055;-66
2021/01/02 12:41:39;;;;;;;44.42;12.95;;;7.90;68.00;;;;;;5067574;28;20028;-67
2021/01/02 12:44:05;;;;;;;;;;;7.80;68.70;;;;;;5086284;28;20339;-66
2021/01/02 12:46:47;;;;;;;19.73;6.82;;;7.80;68.60;;;;;;5085920;28;19981;-67
2021/01/02 12:49:15;;;;;;;11.65;6.32;;;7.80;68.70;;;;;;5085634;28;20473;-67
2021/01/02 12:51:40;;;;;;;8.05;5.00;;;7.80;68.90;;;;;;5085990;28;20028;-67
2021/01/02 12:54:06;;;;;;;;;;;7.80;68.70;;;;;;5086590;28;20030;-66
2021/01/02 12:56:32;;;;;;;8.75;3.88;;;7.80;68.20;;;;;;5067357;28;20427;-67
2021/01/02 12:58:57;;;;;;;;;;;7.80;68.70;;;;;;5086481;28;20028;-67
2021/01/02 13:01:23;;;;;;;6.68;3.45;;;7.90;68.80;;;;;;5085191;28;19995;-67
2021/01/02 13:03:49;;;;;;;;;;;7.80;69.40;;;;;;5086253;28;20786;-67
2021/01/02 13:06:16;;;;;;;9.80;4.80;;;7.70;69.70;;;;;;5085484;28;19980;-67
2021/01/02 13:08:42;;;;;;;8.25;4.45;;;7.50;70.60;;;;;;5085802;28;20381;-67
2021/01/02 13:11:11;;;;;;;;;;;7.60;70.50;;;;;;5085756;28;20032;-66
2021/01/02 13:13:37;;;;;;;15.75;8.70;;;7.60;70.50;;;;;;5067988;28;19914;-67
2021/01/02 13:16:04;;;;;;;16.60;6.45;;;7.60;70.60;;;;;;5085531;28;20127;-67
2021/01/02 13:18:30;;;;;;;8.13;4.57;;;7.50;71.20;;;;;;5084974;28;20035;-68